createdAt,value
2019-02-12T00:01:29.759Z,72.90
2019-02-12T00:04:12.142Z,73.40
2019-02-12T00:06:54.364Z,72.80
2019-02-12T00:09:36.901Z,72.50
2019-02-12T00:12:19.270Z,71.50
2019-02-12T00:15:01.114Z,69.10
2019-02-12T00:17:42.877Z,69.30
2019-02-12T00:20:25.018Z,70.20
2019-02-12T00:23:06.897Z,70.00
2019-02-12T00:25:48.760Z,70.70
2019-02-12T00:28:30.446Z,71.30
2019-02-12T00:31:12.775Z,69.80
2019-02-12T00:33:55.030Z,71.10
2019-02-12T00:36:36.769Z,71.40
2019-02-12T00:39:18.788Z,71.50
2019-02-12T00:42:00.814Z,70.60
2019-02-12T00:44:42.895Z,70.50
2019-02-12T00:47:24.896Z,71.80
2019-02-12T00:50:07.234Z,71.30
2019-02-12T00:52:48.898Z,70.40
2019-02-12T00:55:31.010Z,70.60
2019-02-12T00:58:12.771Z,72.60
2019-02-12T01:00:54.762Z,73.20
2019-02-12T01:03:37.318Z,73.80
2019-02-12T01:06:19.015Z,75.10
2019-02-12T01:09:00.844Z,74.90
2019-02-12T01:11:42.535Z,76.50
2019-02-12T01:14:24.189Z,75.90
2019-02-12T01:17:06.059Z,74.20
2019-02-12T01:19:48.015Z,72.90
2019-02-12T01:22:29.926Z,68.50
2019-02-12T01:25:12.039Z,69.00
2019-02-12T01:27:54.113Z,69.80
2019-02-12T01:30:36.461Z,69.60
2019-02-12T01:33:18.764Z,69.10
2019-02-12T01:36:00.954Z,68.50
2019-02-12T01:38:42.974Z,68.70
2019-02-12T01:41:25.234Z,69.90
2019-02-12T01:44:06.850Z,70.60
2019-02-12T01:46:48.927Z,71.70
2019-02-12T01:49:30.613Z,73.20
2019-02-12T01:52:12.684Z,74.10
2019-02-12T01:54:54.999Z,74.70
2019-02-12T01:57:37.054Z,75.10
2019-02-12T02:00:19.666Z,75.40
2019-02-12T02:03:01.407Z,75.40
2019-02-12T02:05:43.262Z,75.00
2019-02-12T02:08:25.018Z,75.70
2019-02-12T02:11:06.947Z,75.50
2019-02-12T02:13:49.010Z,77.10
2019-02-12T02:16:30.711Z,74.60
2019-02-12T02:19:12.722Z,73.20
2019-02-12T02:21:54.569Z,73.30
2019-02-12T02:24:36.472Z,74.60
2019-02-12T02:27:18.053Z,76.40
2019-02-12T02:30:00.076Z,77.50
2019-02-12T02:32:41.805Z,77.70
2019-02-12T02:35:23.915Z,78.10
2019-02-12T02:38:06.154Z,77.80
2019-02-12T02:40:36.490Z,76.80
2019-02-12T02:43:27.374Z,76.00
2019-02-12T02:46:10.971Z,74.50
2019-02-12T02:48:52.545Z,76.60
2019-02-12T02:51:34.299Z,76.00
2019-02-12T02:54:16.179Z,75.30
2019-02-12T02:56:57.798Z,70.10
2019-02-12T02:59:40.071Z,67.20
2019-02-12T03:02:21.862Z,66.40
2019-02-12T03:05:04.306Z,67.10
2019-02-12T03:07:46.401Z,65.70
2019-02-12T03:10:28.122Z,64.60
2019-02-12T03:13:10.239Z,66.00
2019-02-12T03:15:52.009Z,66.40
2019-02-12T03:18:33.814Z,66.30
2019-02-12T03:21:15.515Z,66.60
2019-02-12T03:23:57.422Z,66.80
2019-02-12T03:26:39.334Z,67.20
2019-02-12T03:29:21.096Z,67.80
2019-02-12T03:32:03.317Z,68.60
2019-02-12T03:34:45.228Z,69.10
2019-02-12T03:37:26.918Z,67.90
2019-02-12T03:40:08.997Z,67.80
2019-02-12T03:42:50.609Z,68.20
2019-02-12T03:45:32.784Z,67.60
2019-02-12T03:48:14.788Z,67.50
2019-02-12T03:50:56.566Z,66.60
2019-02-12T03:53:38.706Z,67.20
2019-02-12T03:56:20.735Z,67.90
2019-02-12T03:59:02.468Z,68.00
2019-02-12T04:01:44.210Z,68.50
2019-02-12T04:04:26.203Z,68.50
2019-02-12T04:07:08.230Z,68.60
2019-02-12T04:09:50.290Z,69.20
2019-02-12T04:12:30.682Z,69.30
2019-02-12T04:15:20.094Z,69.00
2019-02-12T04:18:03.927Z,69.70
2019-02-12T04:20:45.838Z,70.00
2019-02-12T04:23:28.014Z,71.20
2019-02-12T04:26:09.737Z,72.20
2019-02-12T04:28:52.081Z,71.90
2019-02-12T04:31:33.730Z,71.00
2019-02-12T04:34:16.010Z,71.60
2019-02-12T04:36:57.914Z,74.10
2019-02-12T04:39:39.957Z,75.90
2019-02-12T04:42:21.907Z,77.50
2019-02-12T04:45:04.290Z,77.60
2019-02-12T04:47:46.199Z,79.50
2019-02-12T04:50:28.467Z,81.60
2019-02-12T04:53:10.206Z,81.30
2019-02-12T04:55:52.529Z,83.60
2019-02-12T04:58:34.330Z,84.30
2019-02-12T05:01:16.330Z,84.40
2019-02-12T05:03:58.320Z,84.90
2019-02-12T05:06:40.243Z,86.60
2019-02-12T05:09:22.344Z,86.50
2019-02-12T05:12:04.688Z,87.00
2019-02-12T05:14:46.694Z,96.20
2019-02-12T05:17:31.523Z,94.90
2019-02-12T05:20:13.645Z,93.50
2019-02-12T05:22:55.814Z,96.10
2019-02-12T05:25:37.538Z,91.70
2019-02-12T05:28:19.607Z,88.40
2019-02-12T05:31:00.050Z,85.30
2019-02-12T05:33:49.390Z,82.20
2019-02-12T05:36:32.582Z,82.70
2019-02-12T05:39:14.743Z,80.70
2019-02-12T05:41:56.769Z,73.00
2019-02-12T05:44:38.743Z,68.50
2019-02-12T05:47:20.523Z,70.30
2019-02-12T05:50:02.318Z,69.60
2019-02-12T05:52:53.285Z,74.20
2019-02-12T05:55:27.792Z,77.00
2019-02-12T05:58:09.531Z,77.30
2019-02-12T06:00:51.334Z,76.80
2019-02-12T06:03:33.486Z,75.20
2019-02-12T06:06:16.987Z,75.30
2019-02-12T06:08:58.842Z,75.50
2019-02-12T06:11:41.174Z,77.50
2019-02-12T06:14:23.119Z,69.20
2019-02-12T06:17:05.069Z,67.40
2019-02-12T06:19:47.182Z,70.80
2019-02-12T06:22:29.046Z,73.60
2019-02-12T06:25:11.231Z,74.50
2019-02-12T06:27:53.378Z,72.80
2019-02-12T06:30:35.578Z,73.10
2019-02-12T06:33:17.790Z,72.50
2019-02-12T06:35:59.507Z,72.10
2019-02-12T06:38:41.453Z,69.40
2019-02-12T06:41:23.526Z,67.70
2019-02-12T06:44:03.930Z,67.10
2019-02-12T06:46:53.327Z,66.60
2019-02-12T06:49:37.290Z,65.30
2019-02-12T06:52:19.354Z,64.40
2019-02-12T06:55:01.098Z,62.30
2019-02-12T06:57:43.147Z,60.90
2019-02-12T07:00:25.392Z,59.40
2019-02-12T07:03:09.351Z,57.30
2019-02-12T07:05:51.075Z,56.80
2019-02-12T07:08:33.602Z,55.50
2019-02-12T07:11:15.621Z,56.00
2019-02-12T07:13:57.835Z,54.60
2019-02-12T07:16:39.974Z,53.70
2019-02-12T07:19:21.766Z,53.40
2019-02-12T07:22:04.197Z,52.70
2019-02-12T07:24:46.298Z,53.30
2019-02-12T07:27:28.323Z,53.70
2019-02-12T07:30:11.938Z,54.10
2019-02-12T07:32:55.070Z,54.40
2019-02-12T07:35:54.753Z,54.80
2019-02-12T07:39:05.226Z,54.40
2019-02-12T07:41:48.858Z,54.00
2019-02-12T07:44:31.298Z,54.10
2019-02-12T07:47:13.177Z,54.70
2019-02-12T07:49:54.719Z,55.20
2019-02-12T07:52:36.950Z,54.60
2019-02-12T07:55:18.784Z,53.90
2019-02-12T07:58:01.348Z,53.50
2019-02-12T08:00:43.463Z,53.60
2019-02-12T08:03:25.891Z,54.20
2019-02-12T08:06:08.170Z,51.50
2019-02-12T08:08:50.014Z,50.60
2019-02-12T08:11:31.799Z,51.00
2019-02-12T08:14:13.810Z,51.00
2019-02-12T08:16:55.586Z,49.40
2019-02-12T08:19:37.497Z,49.70
2019-02-12T08:22:19.615Z,52.10
2019-02-12T08:25:01.711Z,50.30
2019-02-12T08:27:43.423Z,48.90
2019-02-12T08:30:25.571Z,49.60
2019-02-12T08:33:07.555Z,48.80
2019-02-12T08:35:57.076Z,48.60
2019-02-12T08:38:33.744Z,47.30
2019-02-12T08:41:15.988Z,47.10
2019-02-12T08:43:57.754Z,46.70
2019-02-12T08:46:39.638Z,45.80
2019-02-12T08:49:21.411Z,46.50
2019-02-12T08:55:59.074Z,47.00
2019-02-12T08:58:42.134Z,46.50
2019-02-12T09:01:24.395Z,45.70
2019-02-12T09:04:06.706Z,45.30
2019-02-12T09:06:48.847Z,45.10
2019-02-12T09:09:30.652Z,44.80
2019-02-12T09:12:12.377Z,44.70
2019-02-12T09:15:12.117Z,44.30
2019-02-12T09:18:25.871Z,45.10
2019-02-12T09:21:09.403Z,44.40
2019-02-12T09:23:59.437Z,43.80
2019-02-12T09:26:35.390Z,44.40
2019-02-12T09:29:17.418Z,44.70
2019-02-12T09:32:19.898Z,45.30
2019-02-12T09:35:13.351Z,45.80
2019-02-12T09:37:56.930Z,45.20
2019-02-12T09:40:39.210Z,45.50
2019-02-12T09:43:21.179Z,44.30
2019-02-12T09:46:03.138Z,44.70
2019-02-12T09:48:44.901Z,45.50
2019-02-12T09:51:26.645Z,45.00
2019-02-12T09:54:09.122Z,45.10
2019-02-12T09:56:51.295Z,45.30
2019-02-12T09:59:33.370Z,43.10
2019-02-12T10:02:15.186Z,44.60
2019-02-12T10:04:57.060Z,43.80
2019-02-12T10:07:39.001Z,43.80
2019-02-12T10:10:21.101Z,43.90
2019-02-12T10:13:02.810Z,44.40
2019-02-12T10:15:44.522Z,42.50
2019-02-12T10:18:26.224Z,41.80
2019-02-12T10:21:08.150Z,42.40
2019-02-12T10:23:49.894Z,42.50
2019-02-12T10:26:31.992Z,43.40
2019-02-12T10:29:14.189Z,42.60
2019-02-12T10:31:56.386Z,43.70
2019-02-12T10:34:38.214Z,43.70
2019-02-12T10:37:20.395Z,43.80
2019-02-12T10:40:02.406Z,44.10
2019-02-12T10:42:44.050Z,43.10
2019-02-12T10:45:25.987Z,42.30
2019-02-12T10:48:07.987Z,42.60
2019-02-12T10:50:50.088Z,42.80
2019-02-12T10:53:31.967Z,43.10
2019-02-12T10:56:13.866Z,43.00
2019-02-12T10:58:55.882Z,42.50
2019-02-12T11:01:37.877Z,43.10
2019-02-12T11:04:21.582Z,43.50
2019-02-12T11:07:03.986Z,43.40
2019-02-12T11:09:46.247Z,42.50
2019-02-12T11:12:27.987Z,44.20
2019-02-12T11:15:09.992Z,45.50
2019-02-12T11:17:52.238Z,44.90
2019-02-12T11:20:34.310Z,46.20
2019-02-12T11:23:16.153Z,48.00
2019-02-12T11:25:57.948Z,47.50
2019-02-12T11:28:40.444Z,47.00
2019-02-12T11:31:22.727Z,47.10
2019-02-12T11:34:04.571Z,47.80
2019-02-12T11:36:46.716Z,48.40
2019-02-12T11:39:28.605Z,49.20
2019-02-12T11:42:10.946Z,48.90
2019-02-12T11:44:52.971Z,49.50
2019-02-12T11:47:35.243Z,49.20
2019-02-12T11:50:16.918Z,48.50
2019-02-12T11:52:59.058Z,49.10
2019-02-12T11:55:41.112Z,50.00
2019-02-12T11:58:23.228Z,49.40
2019-02-12T12:01:08.541Z,48.10
2019-02-12T12:03:50.911Z,48.30
2019-02-12T12:06:32.586Z,48.40
2019-02-12T12:09:12.962Z,47.10
2019-02-12T12:11:54.579Z,48.40
2019-02-12T12:14:36.833Z,48.50
2019-02-12T12:17:19.026Z,48.10
2019-02-12T12:20:01.183Z,46.90
2019-02-12T12:22:42.944Z,49.00
2019-02-12T12:25:25.054Z,47.90
2019-02-12T12:28:07.140Z,45.70
2019-02-12T12:30:49.242Z,46.90
2019-02-12T12:33:31.431Z,46.00
2019-02-12T12:36:13.434Z,45.50
2019-02-12T12:38:55.461Z,45.90
2019-02-12T12:41:37.454Z,45.30
2019-02-12T12:44:19.304Z,44.70
2019-02-12T12:47:01.186Z,44.70
2019-02-12T12:49:43.251Z,44.90
2019-02-12T12:52:25.099Z,45.80
2019-02-12T12:55:07.560Z,46.00
2019-02-12T12:57:49.799Z,46.20
2019-02-12T13:00:32.101Z,47.00
2019-02-12T13:03:14.021Z,45.80
2019-02-12T13:05:55.814Z,46.70
2019-02-12T13:08:39.233Z,46.20
2019-02-12T13:11:20.922Z,46.30
2019-02-12T13:14:03.195Z,44.70
2019-02-12T13:16:45.619Z,44.20
2019-02-12T13:19:26.002Z,44.80
2019-02-12T13:22:15.342Z,43.70
2019-02-12T13:24:59.210Z,44.30
2019-02-12T13:27:41.135Z,43.70
2019-02-12T13:30:22.916Z,43.30
2019-02-12T13:33:05.074Z,43.40
2019-02-12T13:35:47.425Z,43.00
2019-02-12T13:38:29.477Z,43.20
2019-02-12T13:41:11.943Z,42.70
2019-02-12T13:43:54.147Z,42.90
2019-02-12T13:46:35.890Z,43.00
2019-02-12T13:49:18.024Z,41.80
2019-02-12T13:51:59.822Z,42.00
2019-02-12T13:54:41.874Z,41.90
2019-02-12T13:57:23.822Z,42.40
2019-02-12T14:00:07.326Z,41.60
2019-02-12T14:02:49.454Z,42.50
2019-02-12T14:05:31.272Z,40.90
2019-02-12T14:08:13.129Z,42.30
2019-02-12T14:10:54.950Z,42.90
2019-02-12T14:13:37.099Z,44.50
2019-02-12T14:16:19.374Z,44.70
2019-02-12T14:19:01.086Z,44.30
2019-02-12T14:21:43.570Z,44.40
2019-02-12T14:24:25.578Z,44.20
2019-02-12T14:27:07.322Z,45.60
2019-02-12T14:29:49.149Z,45.30
2019-02-12T14:32:31.410Z,45.70
2019-02-12T14:35:13.238Z,46.60
2019-02-12T14:37:55.438Z,45.30
2019-02-12T14:40:37.413Z,45.10
2019-02-12T14:43:19.510Z,45.10
2019-02-12T14:46:01.875Z,45.40
2019-02-12T14:48:43.774Z,44.90
2019-02-12T14:51:26.084Z,45.90
2019-02-12T14:54:08.082Z,46.70
2019-02-12T14:56:50.489Z,46.10
2019-02-12T14:59:32.628Z,46.40
2019-02-12T15:02:14.511Z,46.40
2019-02-12T15:05:00.619Z,45.80
2019-02-12T15:07:40.019Z,48.10
2019-02-12T15:10:22.034Z,46.10
2019-02-12T15:13:04.411Z,46.80
2019-02-12T15:15:46.438Z,47.30
2019-02-12T15:18:28.246Z,47.50
2019-02-12T15:21:09.951Z,48.00
2019-02-12T15:23:51.810Z,48.60
2019-02-12T15:26:33.705Z,50.00
2019-02-12T15:29:15.798Z,51.30
2019-02-12T15:31:58.134Z,51.60
2019-02-12T15:34:40.342Z,53.00
2019-02-12T15:37:22.286Z,53.60
2019-02-12T15:40:04.167Z,53.90
2019-02-12T15:42:46.344Z,54.40
2019-02-12T15:45:28.635Z,53.10
2019-02-12T15:48:10.737Z,52.50
2019-02-12T15:50:52.634Z,51.50
2019-02-12T15:53:34.651Z,51.70
2019-02-12T15:56:16.262Z,53.00
2019-02-12T15:58:58.314Z,52.10
2019-02-12T16:01:40.106Z,53.20
2019-02-12T16:04:25.683Z,53.90
2019-02-12T16:07:06.343Z,53.70
2019-02-12T16:09:48.480Z,54.30
2019-02-12T16:12:30.503Z,53.90
2019-02-12T16:15:12.842Z,54.50
2019-02-12T16:17:54.815Z,55.60
2019-02-12T16:20:37.330Z,56.20
2019-02-12T16:23:19.662Z,56.00
2019-02-12T16:26:01.340Z,55.50
2019-02-12T16:28:43.134Z,54.40
2019-02-12T16:31:25.213Z,54.10
2019-02-12T16:34:07.553Z,54.00
2019-02-12T16:36:49.830Z,54.30
2019-02-12T16:39:31.626Z,55.50
2019-02-12T16:42:13.505Z,55.30
2019-02-12T16:44:55.362Z,54.20
2019-02-12T16:47:37.137Z,54.00
2019-02-12T16:50:19.270Z,54.80
2019-02-12T16:53:01.078Z,54.60
2019-02-12T16:55:42.715Z,54.70
2019-02-12T16:58:24.562Z,55.30
2019-02-12T17:01:07.123Z,55.10
2019-02-12T17:03:48.898Z,54.50
2019-02-12T17:06:30.458Z,54.80
2019-02-12T17:09:12.675Z,55.10
2019-02-12T17:11:54.542Z,55.30
2019-02-12T17:14:36.158Z,53.90
2019-02-12T17:17:18.050Z,54.30
2019-02-12T17:20:00.005Z,54.20
2019-02-12T17:22:42.212Z,53.30
2019-02-12T17:25:24.102Z,53.70
2019-02-12T17:28:05.822Z,54.20
2019-02-12T17:30:47.574Z,53.70
2019-02-12T17:33:27.945Z,53.70
2019-02-12T17:36:17.358Z,54.30
2019-02-12T17:39:01.246Z,55.00
2019-02-12T17:41:42.950Z,55.70
2019-02-12T17:44:25.028Z,55.90
2019-02-12T17:47:07.215Z,55.80
2019-02-12T17:49:49.360Z,55.70
2019-02-12T17:52:31.373Z,55.70
2019-02-12T17:55:13.614Z,55.80
2019-02-12T17:57:55.279Z,56.20
2019-02-12T18:00:42.671Z,57.20
2019-02-12T18:03:25.827Z,56.30
2019-02-12T18:06:07.538Z,56.50
2019-02-12T18:08:49.478Z,57.00
2019-02-12T18:11:31.675Z,57.00
2019-02-12T18:14:13.906Z,57.60
2019-02-12T18:16:55.627Z,57.90
2019-02-12T18:19:37.794Z,57.30
2019-02-12T18:22:20.111Z,57.20
2019-02-12T18:25:02.549Z,58.10
2019-02-12T18:27:44.330Z,58.40
2019-02-12T18:30:26.033Z,58.90
2019-02-12T18:33:07.767Z,58.60
2019-02-12T18:35:49.482Z,59.20
2019-02-12T18:38:31.546Z,61.00
2019-02-12T18:41:11.926Z,59.80
2019-02-12T18:44:01.327Z,59.20
2019-02-12T18:46:44.899Z,59.10
2019-02-12T18:49:26.708Z,58.80
2019-02-12T18:52:08.685Z,59.10
2019-02-12T18:54:50.786Z,58.80
2019-02-12T18:57:32.810Z,58.80
2019-02-12T19:00:14.950Z,58.50
2019-02-12T19:02:57.201Z,58.80
2019-02-12T19:05:39.436Z,59.00
2019-02-12T19:08:21.298Z,58.80
2019-02-12T19:11:03.602Z,58.70
2019-02-12T19:13:45.814Z,58.70
2019-02-12T19:16:28.266Z,59.00
2019-02-12T19:19:10.660Z,59.30
2019-02-12T19:21:52.533Z,59.20
2019-02-12T19:24:34.274Z,59.50
2019-02-12T19:27:16.279Z,59.90
2019-02-12T19:29:58.666Z,60.00
2019-02-12T19:32:40.777Z,60.50
2019-02-12T19:35:22.445Z,61.10
2019-02-12T19:38:04.770Z,61.30
2019-02-12T19:40:47.230Z,61.60
2019-02-12T19:43:29.318Z,61.70
2019-02-12T19:46:11.419Z,61.50
2019-02-12T19:48:54.146Z,61.60
2019-02-12T19:51:36.417Z,62.20
2019-02-12T19:54:18.515Z,62.70
2019-02-12T19:57:00.667Z,62.50
2019-02-12T19:59:42.541Z,61.30
2019-02-12T20:02:24.595Z,61.80
2019-02-12T20:05:06.518Z,61.10
2019-02-12T20:07:48.123Z,61.20
2019-02-12T20:10:30.219Z,60.70
2019-02-12T20:13:10.942Z,62.40
2019-02-12T20:15:53.038Z,63.30
2019-02-12T20:18:35.420Z,60.50
2019-02-12T20:21:17.206Z,59.80
2019-02-12T20:23:59.419Z,59.60
2019-02-12T20:26:41.186Z,59.60
2019-02-12T20:29:23.497Z,59.50
2019-02-12T20:32:05.533Z,59.60
2019-02-12T20:34:47.484Z,59.40
2019-02-12T20:37:29.288Z,59.00
2019-02-12T20:40:11.302Z,58.80
2019-02-12T20:42:53.067Z,58.80
2019-02-12T20:45:35.205Z,58.80
2019-02-12T20:48:17.054Z,58.80
2019-02-12T20:50:59.119Z,59.10
2019-02-12T20:53:41.367Z,59.00
2019-02-12T20:56:23.002Z,59.10
2019-02-12T20:59:05.034Z,59.50
2019-02-12T21:01:48.381Z,59.20
2019-02-12T21:04:30.706Z,59.50
2019-02-12T21:07:12.914Z,60.00
2019-02-12T21:09:55.242Z,60.60
2019-02-12T21:12:37.402Z,59.90
2019-02-12T21:15:19.242Z,59.70
2019-02-12T21:18:01.070Z,59.60
2019-02-12T21:20:42.754Z,59.60
2019-02-12T21:23:25.905Z,59.30
2019-02-12T21:26:08.277Z,59.40
2019-02-12T21:28:50.918Z,59.20
2019-02-12T21:31:33.594Z,59.30
2019-02-12T21:34:17.216Z,59.60
2019-02-12T21:36:58.954Z,59.30
2019-02-12T21:39:41.234Z,59.10
2019-02-12T21:42:23.022Z,59.50
2019-02-12T21:45:05.007Z,60.10
2019-02-12T21:47:46.924Z,60.30
2019-02-12T21:50:28.679Z,60.50
2019-02-12T21:53:10.658Z,62.10
2019-02-12T21:55:41.110Z,62.30
2019-02-12T21:58:31.981Z,63.10
2019-02-12T22:01:17.216Z,64.00
2019-02-12T22:03:59.794Z,63.90
2019-02-12T22:06:40.314Z,63.40
2019-02-12T22:09:29.665Z,63.60
2019-02-12T22:15:34.405Z,65.30
2019-02-12T22:18:16.957Z,65.00
2019-02-12T22:20:58.770Z,65.00
2019-02-12T22:23:40.962Z,64.90
2019-02-12T22:26:23.378Z,64.90
2019-02-12T22:29:06.383Z,65.70
2019-02-12T22:31:48.925Z,65.30
2019-02-12T22:34:31.129Z,64.90
2019-02-12T22:37:13.346Z,65.20
2019-02-12T22:39:55.534Z,65.00
2019-02-12T22:42:37.394Z,64.80
2019-02-12T22:45:19.549Z,65.10
2019-02-12T22:48:01.750Z,64.80
2019-02-12T22:50:43.430Z,65.10
2019-02-12T22:53:25.114Z,66.00
2019-02-12T22:56:06.830Z,66.90
2019-02-12T22:58:49.214Z,66.50
2019-02-12T23:01:38.087Z,66.30
2019-02-12T23:04:21.661Z,66.20
2019-02-12T23:07:05.277Z,66.30
2019-02-12T23:10:06.421Z,66.30
2019-02-12T23:12:48.270Z,67.80
2019-02-12T23:15:30.210Z,67.40
2019-02-12T23:18:12.166Z,66.70
2019-02-12T23:20:54.154Z,68.00
2019-02-12T23:23:35.993Z,67.40
2019-02-12T23:26:18.007Z,67.70
2019-02-12T23:28:59.667Z,69.10
2019-02-12T23:31:41.626Z,68.40
2019-02-12T23:34:24.242Z,68.70
2019-02-12T23:37:06.510Z,68.80
2019-02-12T23:39:49.018Z,69.20
2019-02-12T23:42:30.896Z,69.30
2019-02-12T23:45:13.232Z,70.10
2019-02-12T23:47:55.098Z,69.40
2019-02-12T23:50:37.482Z,69.70
2019-02-12T23:53:19.407Z,69.10
2019-02-12T23:56:01.590Z,68.40
2019-02-12T23:58:44.002Z,69.00
